sensor_id;sensor_type;location;lat;lon;timestamp;pressure;altitude;pressure_sealevel;temperature;humidity
65756;BME280;69208;47.502;18.940;2023-09-19T00:00:16;97688.09;;;21.17;70.02
65756;BME280;69208;47.502;18.940;2023-09-19T00:01:21;97676.31;;;21.18;70.06
65756;BME280;69208;47.502;18.940;2023-09-19T00:02:25;97678.25;;;21.21;70.00
65756;BME280;69208;47.502;18.940;2023-09-19T00:03:28;97680.16;;;21.24;69.95
65756;BME280;69208;47.502;18.940;2023-09-19T00:04:32;97680.50;;;21.23;69.90
65756;BME280;69208;47.502;18.940;2023-09-19T00:05:37;97684.28;;;21.14;70.29
65756;BME280;69208;47.502;18.940;2023-09-19T00:06:48;97685.44;;;21.17;70.32
65756;BME280;69208;47.502;18.940;2023-09-19T00:07:51;97695.66;;;21.04;70.83
65756;BME280;69208;47.502;18.940;2023-09-19T00:08:58;97686.59;;;21.16;70.44
65756;BME280;69208;47.502;18.940;2023-09-19T00:10:06;97687.69;;;21.11;70.48
65756;BME280;69208;47.502;18.940;2023-09-19T00:11:12;97690.75;;;21.13;70.58
65756;BME280;69208;47.502;18.940;2023-09-19T00:12:15;97685.06;;;21.15;70.56
65756;BME280;69208;47.502;18.940;2023-09-19T00:13:18;97691.16;;;21.19;70.42
65756;BME280;69208;47.502;18.940;2023-09-19T00:14:25;97696.81;;;21.10;70.63
65756;BME280;69208;47.502;18.940;2023-09-19T00:15:28;97680.44;;;21.08;70.77
65756;BME280;69208;47.502;18.940;2023-09-19T00:16:36;97680.81;;;21.07;70.90
65756;BME280;69208;47.502;18.940;2023-09-19T00:17:39;97684.66;;;21.09;70.94
65756;BME280;69208;47.502;18.940;2023-09-19T00:18:43;97688.00;;;21.03;71.14
65756;BME280;69208;47.502;18.940;2023-09-19T00:19:46;97686.13;;;21.03;71.27
65756;BME280;69208;47.502;18.940;2023-09-19T00:20:58;97683.44;;;21.00;71.41
65756;BME280;69208;47.502;18.940;2023-09-19T00:22:01;97686.50;;;21.02;71.32
65756;BME280;69208;47.502;18.940;2023-09-19T00:23:05;97683.81;;;20.98;71.53
65756;BME280;69208;47.502;18.940;2023-09-19T00:24:11;97676.22;;;21.00;71.60
65756;BME280;69208;47.502;18.940;2023-09-19T00:25:16;97678.53;;;21.05;71.44
65756;BME280;69208;47.502;18.940;2023-09-19T00:26:19;97686.91;;;21.07;71.31
65756;BME280;69208;47.502;18.940;2023-09-19T00:27:23;97678.16;;;21.07;71.30
65756;BME280;69208;47.502;18.940;2023-09-19T00:28:27;97682.34;;;21.04;71.38
65756;BME280;69208;47.502;18.940;2023-09-19T00:29:32;97686.16;;;21.10;71.10
65756;BME280;69208;47.502;18.940;2023-09-19T00:30:36;97681.56;;;21.04;71.34
65756;BME280;69208;47.502;18.940;2023-09-19T00:31:43;97684.22;;;21.00;71.64
65756;BME280;69208;47.502;18.940;2023-09-19T00:32:47;97684.97;;;20.97;71.76
65756;BME280;69208;47.502;18.940;2023-09-19T00:33:50;97686.84;;;20.97;71.77
65756;BME280;69208;47.502;18.940;2023-09-19T00:34:54;97682.25;;;20.94;72.05
65756;BME280;69208;47.502;18.940;2023-09-19T00:35:59;97683.06;;;20.94;72.27
65756;BME280;69208;47.502;18.940;2023-09-19T00:37:02;97688.38;;;20.94;72.14
65756;BME280;69208;47.502;18.940;2023-09-19T00:38:06;97681.50;;;20.93;72.27
65756;BME280;69208;47.502;18.940;2023-09-19T00:39:09;97684.94;;;20.94;72.35
65756;BME280;69208;47.502;18.940;2023-09-19T00:40:13;97687.22;;;20.95;72.40
65756;BME280;69208;47.502;18.940;2023-09-19T00:41:18;97685.66;;;20.90;72.57
65756;BME280;69208;47.502;18.940;2023-09-19T00:42:21;97686.78;;;20.86;72.88
65756;BME280;69208;47.502;18.940;2023-09-19T00:43:24;97687.12;;;20.81;73.07
65756;BME280;69208;47.502;18.940;2023-09-19T00:44:27;97684.91;;;20.86;72.83
65756;BME280;69208;47.502;18.940;2023-09-19T00:45:30;97682.63;;;20.88;72.78
65756;BME280;69208;47.502;18.940;2023-09-19T00:46:34;97683.00;;;20.87;73.08
65756;BME280;69208;47.502;18.940;2023-09-19T00:47:45;97686.06;;;20.89;73.07
65756;BME280;69208;47.502;18.940;2023-09-19T00:48:50;97684.91;;;20.86;73.26
65756;BME280;69208;47.502;18.940;2023-09-19T00:49:53;97684.91;;;20.90;73.16
65756;BME280;69208;47.502;18.940;2023-09-19T00:50:59;97683.41;;;20.89;73.27
65756;BME280;69208;47.502;18.940;2023-09-19T00:52:06;97684.50;;;20.88;73.35
65756;BME280;69208;47.502;18.940;2023-09-19T00:53:13;97688.34;;;20.90;73.29
65756;BME280;69208;47.502;18.940;2023-09-19T00:54:17;97686.06;;;20.89;73.37
65756;BME280;69208;47.502;18.940;2023-09-19T00:55:21;97687.16;;;20.84;73.61
65756;BME280;69208;47.502;18.940;2023-09-19T00:56:26;97690.63;;;20.92;73.43
65756;BME280;69208;47.502;18.940;2023-09-19T00:57:29;97682.22;;;20.86;73.60
65756;BME280;69208;47.502;18.940;2023-09-19T00:58:36;97681.06;;;20.84;73.96
65756;BME280;69208;47.502;18.940;2023-09-19T00:59:39;97686.78;;;20.82;73.92
65756;BME280;69208;47.502;18.940;2023-09-19T01:00:42;97687.12;;;20.81;74.12
65756;BME280;69208;47.502;18.940;2023-09-19T01:01:48;97683.72;;;20.84;74.04
65756;BME280;69208;47.502;18.940;2023-09-19T01:02:56;97681.47;;;20.86;73.95
65756;BME280;69208;47.502;18.940;2023-09-19T01:03:59;97686.44;;;20.91;73.78
65756;BME280;69208;47.502;18.940;2023-09-19T01:05:03;97687.22;;;20.92;73.82
65756;BME280;69208;47.502;18.940;2023-09-19T01:06:10;97687.16;;;20.84;74.02
65756;BME280;69208;47.502;18.940;2023-09-19T01:07:15;97691.00;;;20.90;73.85
65756;BME280;69208;47.502;18.940;2023-09-19T01:08:18;97684.56;;;20.92;73.87
65756;BME280;69208;47.502;18.940;2023-09-19T01:09:21;97683.00;;;20.90;73.98
65756;BME280;69208;47.502;18.940;2023-09-19T01:10:25;97688.69;;;20.85;74.15
65756;BME280;69208;47.502;18.940;2023-09-19T01:11:39;97682.97;;;20.80;74.41
65756;BME280;69208;47.502;18.940;2023-09-19T01:12:54;97690.16;;;20.79;74.48
65756;BME280;69208;47.502;18.940;2023-09-19T01:14:31;97682.16;;;20.76;74.66
65756;BME280;69208;47.502;18.940;2023-09-19T01:17:22;97676.13;;;20.82;74.68
65756;BME280;69208;47.502;18.940;2023-09-19T01:18:47;97679.50;;;20.79;74.77
65756;BME280;69208;47.502;18.940;2023-09-19T01:20:19;97684.84;;;20.79;74.90
65756;BME280;69208;47.502;18.940;2023-09-19T01:21:30;97679.50;;;20.76;74.91
65756;BME280;69208;47.502;18.940;2023-09-19T01:22:56;97690.53;;;20.74;75.11
65756;BME280;69208;47.502;18.940;2023-09-19T01:29:37;97679.88;;;20.74;75.37
65756;BME280;69208;47.502;18.940;2023-09-19T01:30:46;97675.31;;;20.75;75.40
65756;BME280;69208;47.502;18.940;2023-09-19T01:31:51;97668.09;;;20.75;75.28
65756;BME280;69208;47.502;18.940;2023-09-19T01:32:57;97667.31;;;20.75;75.40
65756;BME280;69208;47.502;18.940;2023-09-19T01:34:03;97676.84;;;20.76;75.41
65756;BME280;69208;47.502;18.940;2023-09-19T01:35:10;97667.31;;;20.71;75.66
65756;BME280;69208;47.502;18.940;2023-09-19T01:36:15;97669.56;;;20.69;75.96
65756;BME280;69208;47.502;18.940;2023-09-19T01:37:21;97666.94;;;20.73;75.73
65756;BME280;69208;47.502;18.940;2023-09-19T01:38:28;97669.59;;;20.76;75.65
65756;BME280;69208;47.502;18.940;2023-09-19T01:39:31;97673.81;;;20.77;75.53
65756;BME280;69208;47.502;18.940;2023-09-19T01:40:42;97668.84;;;20.76;75.79
65756;BME280;69208;47.502;18.940;2023-09-19T01:41:58;97666.91;;;20.69;76.08
65756;BME280;69208;47.502;18.940;2023-09-19T01:43:15;97665.00;;;20.66;76.30
65756;BME280;69208;47.502;18.940;2023-09-19T01:44:40;97668.78;;;20.65;76.37
65756;BME280;69208;47.502;18.940;2023-09-19T01:46:14;97661.91;;;20.64;76.54
65756;BME280;69208;47.502;18.940;2023-09-19T01:47:38;97669.94;;;20.67;76.44
65756;BME280;69208;47.502;18.940;2023-09-19T01:51:07;97659.25;;;20.64;76.74
65756;BME280;69208;47.502;18.940;2023-09-19T01:52:13;97663.06;;;20.59;77.05
65756;BME280;69208;47.502;18.940;2023-09-19T01:53:25;97663.03;;;20.56;77.18
65756;BME280;69208;47.502;18.940;2023-09-19T01:54:34;97668.72;;;20.54;77.27
65756;BME280;69208;47.502;18.940;2023-09-19T01:55:47;97655.06;;;20.56;77.16
65756;BME280;69208;47.502;18.940;2023-09-19T01:57:06;97668.72;;;20.54;77.27
65756;BME280;69208;47.502;18.940;2023-09-19T02:01:11;97670.22;;;20.55;77.56
65756;BME280;69208;47.502;18.940;2023-09-19T02:02:17;97675.19;;;20.53;77.54
65756;BME280;69208;47.502;18.940;2023-09-19T02:03:21;97669.84;;;20.53;77.49
65756;BME280;69208;47.502;18.940;2023-09-19T02:04:27;97662.59;;;20.50;77.80
65756;BME280;69208;47.502;18.940;2023-09-19T02:05:31;97675.84;;;20.46;77.95
65756;BME280;69208;47.502;18.940;2023-09-19T02:06:40;97667.13;;;20.50;77.91
65756;BME280;69208;47.502;18.940;2023-09-19T02:07:44;97669.00;;;20.49;77.88
65756;BME280;69208;47.502;18.940;2023-09-19T02:08:48;97664.41;;;20.42;78.32
65756;BME280;69208;47.502;18.940;2023-09-19T02:09:51;97674.31;;;20.45;78.22
65756;BME280;69208;47.502;18.940;2023-09-19T02:10:54;97664.84;;;20.48;78.20
65756;BME280;69208;47.502;18.940;2023-09-19T02:11:57;97653.03;;;20.45;78.17
65756;BME280;69208;47.502;18.940;2023-09-19T02:13:02;97666.28;;;20.38;78.79
65756;BME280;69208;47.502;18.940;2023-09-19T02:14:07;97666.25;;;20.35;79.02
65756;BME280;69208;47.502;18.940;2023-09-19T02:15:11;97659.41;;;20.34;78.94
65756;BME280;69208;47.502;18.940;2023-09-19T02:16:16;97670.06;;;20.37;78.87
65756;BME280;69208;47.502;18.940;2023-09-19T02:17:23;97670.06;;;20.37;78.87
65756;BME280;69208;47.502;18.940;2023-09-19T02:18:29;97671.25;;;20.43;78.62
65756;BME280;69208;47.502;18.940;2023-09-19T02:19:33;97674.28;;;20.42;78.82
65756;BME280;69208;47.502;18.940;2023-09-19T02:20:38;97670.13;;;20.41;78.91
65756;BME280;69208;47.502;18.940;2023-09-19T02:21:42;97670.47;;;20.39;78.96
65756;BME280;69208;47.502;18.940;2023-09-19T02:22:45;97676.19;;;20.41;78.85
65756;BME280;69208;47.502;18.940;2023-09-19T02:23:48;97669.31;;;20.40;78.92
65756;BME280;69208;47.502;18.940;2023-09-19T02:24:51;97664.41;;;20.42;78.96
65756;BME280;69208;47.502;18.940;2023-09-19T02:25:56;97669.69;;;20.35;79.42
65756;BME280;69208;47.502;18.940;2023-09-19T02:27:06;97662.09;;;20.37;79.23
65756;BME280;69208;47.502;18.940;2023-09-19T02:28:10;97667.03;;;20.35;79.54
65756;BME280;69208;47.502;18.940;2023-09-19T02:29:14;97665.88;;;20.33;79.53
65756;BME280;69208;47.502;18.940;2023-09-19T02:30:17;97666.22;;;20.31;79.90
65756;BME280;69208;47.502;18.940;2023-09-19T02:31:23;97668.44;;;20.26;80.08
65756;BME280;69208;47.502;18.940;2023-09-19T02:32:26;97669.25;;;20.26;80.06
65756;BME280;69208;47.502;18.940;2023-09-19T02:33:29;97666.56;;;20.26;80.17
65756;BME280;69208;47.502;18.940;2023-09-19T02:34:36;97666.94;;;20.25;80.34
65756;BME280;69208;47.502;18.940;2023-09-19T02:35:39;97667.25;;;20.19;80.60
65756;BME280;69208;47.502;18.940;2023-09-19T02:36:42;97674.47;;;20.19;80.55
65756;BME280;69208;47.502;18.940;2023-09-19T02:37:47;97671.78;;;20.15;80.87
65756;BME280;69208;47.502;18.940;2023-09-19T02:38:51;97664.91;;;20.11;81.15
65756;BME280;69208;47.502;18.940;2023-09-19T02:39:54;97659.13;;;20.02;81.79
65756;BME280;69208;47.502;18.940;2023-09-19T02:40:57;97667.44;;;19.96;81.98
65756;BME280;69208;47.502;18.940;2023-09-19T02:42:01;97669.31;;;19.96;81.92
65756;BME280;69208;47.502;18.940;2023-09-19T02:43:06;97666.22;;;19.90;82.01
65756;BME280;69208;47.502;18.940;2023-09-19T02:44:11;97662.09;;;19.93;81.99
65756;BME280;69208;47.502;18.940;2023-09-19T02:45:17;97657.16;;;19.95;81.91
65756;BME280;69208;47.502;18.940;2023-09-19T02:46:21;97658.25;;;19.90;82.11
65756;BME280;69208;47.502;18.940;2023-09-19T02:47:24;97655.25;;;19.92;82.06
65756;BME280;69208;47.502;18.940;2023-09-19T02:48:27;97659.41;;;19.93;82.04
65756;BME280;69208;47.502;18.940;2023-09-19T02:49:32;97651.81;;;19.88;82.17
65756;BME280;69208;47.502;18.940;2023-09-19T02:50:36;97661.00;;;19.97;81.89
65756;BME280;69208;47.502;18.940;2023-09-19T02:51:39;97659.06;;;19.94;81.97
65756;BME280;69208;47.502;18.940;2023-09-19T02:52:43;97662.81;;;19.90;82.19
65756;BME280;69208;47.502;18.940;2023-09-19T02:53:46;97658.97;;;19.84;82.39
65756;BME280;69208;47.502;18.940;2023-09-19T02:54:51;97660.06;;;19.79;82.75
65756;BME280;69208;47.502;18.940;2023-09-19T02:55:54;97669.19;;;19.82;82.80
65756;BME280;69208;47.502;18.940;2023-09-19T02:56:58;97669.16;;;19.78;82.94
65756;BME280;69208;47.502;18.940;2023-09-19T02:58:02;97670.31;;;19.81;82.84
65756;BME280;69208;47.502;18.940;2023-09-19T02:59:05;97658.12;;;19.76;83.20
65756;BME280;69208;47.502;18.940;2023-09-19T03:00:09;97657.72;;;19.74;83.45
65756;BME280;69208;47.502;18.940;2023-09-19T03:01:13;97655.44;;;19.72;83.64
65756;BME280;69208;47.502;18.940;2023-09-19T03:02:17;97663.75;;;19.67;84.01
65756;BME280;69208;47.502;18.940;2023-09-19T03:03:23;97660.72;;;19.69;83.91
65756;BME280;69208;47.502;18.940;2023-09-19T03:04:26;97662.91;;;19.63;83.96
65756;BME280;69208;47.502;18.940;2023-09-19T03:05:30;97666.97;;;19.53;84.74
65756;BME280;69208;47.502;18.940;2023-09-19T03:06:33;97664.78;;;19.63;84.44
65756;BME280;69208;47.502;18.940;2023-09-19T03:07:37;97661.84;;;19.68;84.23
65756;BME280;69208;47.502;18.940;2023-09-19T03:08:41;97664.03;;;19.62;84.51
65756;BME280;69208;47.502;18.940;2023-09-19T03:09:45;97656.13;;;19.66;84.32
65756;BME280;69208;47.502;18.940;2023-09-19T03:10:48;97664.03;;;19.62;84.47
65756;BME280;69208;47.502;18.940;2023-09-19T03:11:51;97670.41;;;19.58;84.85
65756;BME280;69208;47.502;18.940;2023-09-19T03:12:54;97664.75;;;19.59;84.78
65756;BME280;69208;47.502;18.940;2023-09-19T03:13:57;97664.34;;;19.57;84.86
65756;BME280;69208;47.502;18.940;2023-09-19T03:15:01;97669.63;;;19.53;85.03
65756;BME280;69208;47.502;18.940;2023-09-19T03:16:04;97677.19;;;19.51;85.25
65756;BME280;69208;47.502;18.940;2023-09-19T03:17:10;97673.03;;;19.54;85.16
65756;BME280;69208;47.502;18.940;2023-09-19T03:18:14;97666.31;;;19.64;84.64
65756;BME280;69208;47.502;18.940;2023-09-19T03:19:17;97674.38;;;19.67;84.38
65756;BME280;69208;47.502;18.940;2023-09-19T03:20:20;97670.56;;;19.68;84.39
65756;BME280;69208;47.502;18.940;2023-09-19T03:21:23;97667.03;;;19.61;84.75
65756;BME280;69208;47.502;18.940;2023-09-19T03:22:28;97670.47;;;19.61;84.83
65756;BME280;69208;47.502;18.940;2023-09-19T03:23:31;97668.94;;;19.60;84.93
65756;BME280;69208;47.502;18.940;2023-09-19T03:24:34;97667.03;;;19.61;84.99
65756;BME280;69208;47.502;18.940;2023-09-19T03:25:38;97672.72;;;19.59;85.01
65756;BME280;69208;47.502;18.940;2023-09-19T03:26:42;97668.91;;;19.57;85.17
65756;BME280;69208;47.502;18.940;2023-09-19T03:27:45;97668.56;;;19.58;85.23
65756;BME280;69208;47.502;18.940;2023-09-19T03:28:48;97670.84;;;19.60;85.13
65756;BME280;69208;47.502;18.940;2023-09-19T03:29:51;97660.94;;;19.57;85.22
65756;BME280;69208;47.502;18.940;2023-09-19T03:31:02;97657.97;;;19.62;85.04
65756;BME280;69208;47.502;18.940;2023-09-19T03:32:05;97660.25;;;19.63;84.98
65756;BME280;69208;47.502;18.940;2023-09-19T03:33:08;97667.44;;;19.63;84.96
65756;BME280;69208;47.502;18.940;2023-09-19T03:34:13;97667.03;;;19.61;85.17
65756;BME280;69208;47.502;18.940;2023-09-19T03:35:17;97664.72;;;19.55;85.38
65756;BME280;69208;47.502;18.940;2023-09-19T03:36:20;97672.69;;;19.55;85.63
65756;BME280;69208;47.502;18.940;2023-09-19T03:37:23;97668.94;;;19.60;85.57
65756;BME280;69208;47.502;18.940;2023-09-19T03:38:27;97671.34;;;19.69;85.06
65756;BME280;69208;47.502;18.940;2023-09-19T03:39:32;97667.63;;;19.77;84.73
65756;BME280;69208;47.502;18.940;2023-09-19T03:40:34;97671.44;;;19.76;84.59
65756;BME280;69208;47.502;18.940;2023-09-19T03:41:40;97676.66;;;19.69;85.06
65756;BME280;69208;47.502;18.940;2023-09-19T03:42:43;97667.81;;;19.61;85.62
65756;BME280;69208;47.502;18.940;2023-09-19T03:43:46;97671.31;;;19.65;85.31
65756;BME280;69208;47.502;18.940;2023-09-19T03:44:49;97665.50;;;19.56;85.84
65756;BME280;69208;47.502;18.940;2023-09-19T03:45:53;97671.25;;;19.62;85.73
65756;BME280;69208;47.502;18.940;2023-09-19T03:46:57;97669.81;;;19.68;85.38
65756;BME280;69208;47.502;18.940;2023-09-19T03:48:00;97667.88;;;19.65;85.71
65756;BME280;69208;47.502;18.940;2023-09-19T03:49:03;97670.53;;;19.65;85.73
65756;BME280;69208;47.502;18.940;2023-09-19T03:50:07;97668.34;;;19.70;85.22
65756;BME280;69208;47.502;18.940;2023-09-19T03:51:10;97667.50;;;19.66;85.56
65756;BME280;69208;47.502;18.940;2023-09-19T03:52:14;97669.13;;;19.74;85.03
65756;BME280;69208;47.502;18.940;2023-09-19T03:53:18;97669.44;;;19.69;85.26
65756;BME280;69208;47.502;18.940;2023-09-19T03:54:21;97667.16;;;19.68;85.56
65756;BME280;69208;47.502;18.940;2023-09-19T03:55:24;97670.88;;;19.63;85.86
65756;BME280;69208;47.502;18.940;2023-09-19T03:56:28;97673.91;;;19.62;85.93
65756;BME280;69208;47.502;18.940;2023-09-19T03:57:31;97680.69;;;19.59;86.18
65756;BME280;69208;47.502;18.940;2023-09-19T03:58:34;97678.16;;;19.70;85.58
65756;BME280;69208;47.502;18.940;2023-09-19T03:59:42;97681.50;;;19.63;85.82
65756;BME280;69208;47.502;18.940;2023-09-19T04:00:48;97689.44;;;19.60;85.98
65756;BME280;69208;47.502;18.940;2023-09-19T04:01:53;97682.97;;;19.61;85.94
65756;BME280;69208;47.502;18.940;2023-09-19T04:02:59;97678.97;;;19.70;85.23
65756;BME280;69208;47.502;18.940;2023-09-19T04:04:05;97685.00;;;19.67;85.62
65756;BME280;69208;47.502;18.940;2023-09-19T04:05:11;97688.09;;;19.73;84.97
65756;BME280;69208;47.502;18.940;2023-09-19T04:06:14;97687.69;;;19.71;85.06
65756;BME280;69208;47.502;18.940;2023-09-19T04:07:18;97692.56;;;19.65;85.57
65756;BME280;69208;47.502;18.940;2023-09-19T04:08:25;97688.34;;;19.64;85.74
65756;BME280;69208;47.502;18.940;2023-09-19T04:09:28;97692.28;;;19.74;85.46
65756;BME280;69208;47.502;18.940;2023-09-19T04:10:31;97681.97;;;19.69;85.80
65756;BME280;69208;47.502;18.940;2023-09-19T04:11:34;97682.72;;;19.69;85.66
65756;BME280;69208;47.502;18.940;2023-09-19T04:12:38;97687.66;;;19.67;85.94
65756;BME280;69208;47.502;18.940;2023-09-19T04:13:41;97692.13;;;19.63;86.44
65756;BME280;69208;47.502;18.940;2023-09-19T04:14:45;97683.37;;;19.63;86.36
65756;BME280;69208;47.502;18.940;2023-09-19T04:15:48;97690.19;;;19.60;86.57
65756;BME280;69208;47.502;18.940;2023-09-19T04:16:51;97686.78;;;19.60;86.49
65756;BME280;69208;47.502;18.940;2023-09-19T04:17:55;97685.63;;;19.61;86.28
65756;BME280;69208;47.502;18.940;2023-09-19T04:18:58;97692.84;;;19.60;85.95
65756;BME280;69208;47.502;18.940;2023-09-19T04:20:01;97694.41;;;19.61;86.07
65756;BME280;69208;47.502;18.940;2023-09-19T04:21:04;97697.06;;;19.61;86.21
65756;BME280;69208;47.502;18.940;2023-09-19T04:22:08;97690.22;;;19.64;86.05
65756;BME280;69208;47.502;18.940;2023-09-19T04:23:12;97692.50;;;19.62;86.71
65756;BME280;69208;47.502;18.940;2023-09-19T04:24:16;97701.22;;;19.62;86.54
65756;BME280;69208;47.502;18.940;2023-09-19T04:25:22;97698.94;;;19.61;87.02
65756;BME280;69208;47.502;18.940;2023-09-19T04:26:25;97694.75;;;19.60;87.14
65756;BME280;69208;47.502;18.940;2023-09-19T04:27:28;97698.94;;;19.61;86.82
65756;BME280;69208;47.502;18.940;2023-09-19T04:28:32;97696.66;;;19.59;86.21
65756;BME280;69208;47.502;18.940;2023-09-19T04:29:37;97695.88;;;19.59;85.93
65756;BME280;69208;47.502;18.940;2023-09-19T04:30:40;97700.06;;;19.60;85.73
65756;BME280;69208;47.502;18.940;2023-09-19T04:31:43;97706.09;;;19.57;85.15
65756;BME280;69208;47.502;18.940;2023-09-19T04:32:48;97700.81;;;19.60;84.97
65756;BME280;69208;47.502;18.940;2023-09-19T04:33:54;97704.38;;;19.68;84.23
65756;BME280;69208;47.502;18.940;2023-09-19T04:34:57;97703.88;;;19.62;83.99
65756;BME280;69208;47.502;18.940;2023-09-19T04:36:03;97707.31;;;19.63;83.99
65756;BME280;69208;47.502;18.940;2023-09-19T04:37:28;97709.56;;;19.61;83.87
65756;BME280;69208;47.502;18.940;2023-09-19T04:38:32;97707.31;;;19.63;83.46
65756;BME280;69208;47.502;18.940;2023-09-19T04:39:35;97713.00;;;19.61;83.07
65756;BME280;69208;47.502;18.940;2023-09-19T04:40:38;97714.47;;;19.59;82.77
65756;BME280;69208;47.502;18.940;2023-09-19T04:41:42;97715.59;;;19.58;82.54
65756;BME280;69208;47.502;18.940;2023-09-19T04:42:55;97720.06;;;19.50;83.25
65756;BME280;69208;47.502;18.940;2023-09-19T04:44:00;97721.84;;;19.42;84.22
65756;BME280;69208;47.502;18.940;2023-09-19T04:45:03;97724.16;;;19.44;84.05
65756;BME280;69208;47.502;18.940;2023-09-19T04:46:07;97734.72;;;19.40;83.66
65756;BME280;69208;47.502;18.940;2023-09-19T04:47:11;97731.38;;;19.43;82.94
65756;BME280;69208;47.502;18.940;2023-09-19T04:48:15;97727.09;;;19.35;83.52
65756;BME280;69208;47.502;18.940;2023-09-19T04:49:19;97728.53;;;19.29;83.67
65756;BME280;69208;47.502;18.940;2023-09-19T04:50:22;97735.38;;;19.30;83.89
65756;BME280;69208;47.502;18.940;2023-09-19T04:51:26;97725.38;;;19.20;84.87
65756;BME280;69208;47.502;18.940;2023-09-19T04:52:32;97737.41;;;19.14;85.34
65756;BME280;69208;47.502;18.940;2023-09-19T04:53:36;97739.56;;;19.04;86.04
65756;BME280;69208;47.502;18.940;2023-09-19T04:54:40;97738.03;;;19.03;86.37
65756;BME280;69208;47.502;18.940;2023-09-19T04:55:44;97730.37;;;18.98;86.85
65756;BME280;69208;47.502;18.940;2023-09-19T04:56:47;97731.13;;;18.99;86.98
65756;BME280;69208;47.502;18.940;2023-09-19T04:57:50;97732.56;;;18.93;87.40
65756;BME280;69208;47.502;18.940;2023-09-19T04:58:55;97725.94;;;18.79;88.15
65756;BME280;69208;47.502;18.940;2023-09-19T04:59:59;97721.75;;;18.78;88.38
65756;BME280;69208;47.502;18.940;2023-09-19T05:01:02;97733.47;;;18.77;88.73
65756;BME280;69208;47.502;18.940;2023-09-19T05:02:05;97741.06;;;18.75;89.29
65756;BME280;69208;47.502;18.940;2023-09-19T05:03:08;97734.66;;;18.80;88.79
65756;BME280;69208;47.502;18.940;2023-09-19T05:04:12;97730.81;;;18.77;89.04
65756;BME280;69208;47.502;18.940;2023-09-19T05:05:16;97738.03;;;18.77;89.28
65756;BME280;69208;47.502;18.940;2023-09-19T05:06:20;97738.28;;;18.72;89.47
65756;BME280;69208;47.502;18.940;2023-09-19T05:07:24;97741.66;;;18.69;89.11
65756;BME280;69208;47.502;18.940;2023-09-19T05:08:29;97739.72;;;18.65;88.50
65756;BME280;69208;47.502;18.940;2023-09-19T05:09:31;97749.31;;;18.51;89.57
65756;BME280;69208;47.502;18.940;2023-09-19T05:10:37;97750.03;;;18.48;89.71
65756;BME280;69208;47.502;18.940;2023-09-19T05:11:40;97766.13;;;18.35;90.66
65756;BME280;69208;47.502;18.940;2023-09-19T05:12:44;97757.75;;;18.33;90.76
65756;BME280;69208;47.502;18.940;2023-09-19T05:13:50;97762.72;;;18.35;90.63
65756;BME280;69208;47.502;18.940;2023-09-19T05:14:53;97754.31;;;18.33;90.94
65756;BME280;69208;47.502;18.940;2023-09-19T05:16:00;97764.22;;;18.36;90.69
65756;BME280;69208;47.502;18.940;2023-09-19T05:17:05;97766.00;;;18.28;91.23
65756;BME280;69208;47.502;18.940;2023-09-19T05:18:08;97762.50;;;18.24;91.56
65756;BME280;69208;47.502;18.940;2023-09-19T05:19:11;97769.28;;;18.22;91.82
65756;BME280;69208;47.502;18.940;2023-09-19T05:20:15;97767.47;;;18.26;91.50
65756;BME280;69208;47.502;18.940;2023-09-19T05:21:27;97770.06;;;18.22;91.39
65756;BME280;69208;47.502;18.940;2023-09-19T05:22:33;97768.03;;;18.15;92.11
65756;BME280;69208;47.502;18.940;2023-09-19T05:23:37;97773.91;;;18.05;92.29
65756;BME280;69208;47.502;18.940;2023-09-19T05:24:40;97774.56;;;17.99;92.76
65756;BME280;69208;47.502;18.940;2023-09-19T05:25:43;97780.19;;;17.97;93.12
65756;BME280;69208;47.502;18.940;2023-09-19T05:26:47;97771.41;;;17.93;93.34
65756;BME280;69208;47.502;18.940;2023-09-19T05:27:53;97774.56;;;17.99;93.00
65756;BME280;69208;47.502;18.940;2023-09-19T05:28:56;97778.31;;;17.98;93.06
65756;BME280;69208;47.502;18.940;2023-09-19T05:30:00;97776.41;;;17.98;93.07
65756;BME280;69208;47.502;18.940;2023-09-19T05:31:03;97783.53;;;17.94;93.19
65756;BME280;69208;47.502;18.940;2023-09-19T05:32:07;97779.16;;;18.02;92.61
65756;BME280;69208;47.502;18.940;2023-09-19T05:33:09;97785.91;;;17.99;92.82
65756;BME280;69208;47.502;18.940;2023-09-19T05:34:12;97791.63;;;18.01;92.67
65756;BME280;69208;47.502;18.940;2023-09-19T05:35:15;97778.34;;;18.01;92.29
65756;BME280;69208;47.502;18.940;2023-09-19T05:36:18;97783.59;;;17.98;92.14
65756;BME280;69208;47.502;18.940;2023-09-19T05:37:22;97777.94;;;17.80;93.41
65756;BME280;69208;47.502;18.940;2023-09-19T05:38:26;97785.97;;;17.83;92.97
65756;BME280;69208;47.502;18.940;2023-09-19T05:39:30;97779.84;;;17.79;93.28
65756;BME280;69208;47.502;18.940;2023-09-19T05:40:33;97777.09;;;17.76;93.77
65756;BME280;69208;47.502;18.940;2023-09-19T05:41:37;97777.44;;;17.74;94.24
65756;BME280;69208;47.502;18.940;2023-09-19T05:42:42;97780.44;;;17.72;94.24
65756;BME280;69208;47.502;18.940;2023-09-19T05:43:49;97773.59;;;17.71;94.09
65756;BME280;69208;47.502;18.940;2023-09-19T05:44:53;97782.66;;;17.70;93.90
65756;BME280;69208;47.502;18.940;2023-09-19T05:45:56;97773.59;;;17.71;94.04
65756;BME280;69208;47.502;18.940;2023-09-19T05:46:59;97778.81;;;17.68;94.07
65756;BME280;69208;47.502;18.940;2023-09-19T05:48:13;97779.19;;;17.66;94.17
65756;BME280;69208;47.502;18.940;2023-09-19T05:49:19;97783.34;;;17.67;94.36
65756;BME280;69208;47.502;18.940;2023-09-19T05:50:24;97786.38;;;17.66;93.91
65756;BME280;69208;47.502;18.940;2023-09-19T05:51:27;97781.84;;;17.66;94.18
65756;BME280;69208;47.502;18.940;2023-09-19T05:52:31;97790.19;;;17.68;94.33
65756;BME280;69208;47.502;18.940;2023-09-19T05:53:34;97794.44;;;17.73;94.17